createdAt,value
2019-02-22T00:00:38.590Z,11.13
2019-02-22T00:01:12.632Z,9.30
2019-02-22T00:01:45.790Z,9.77
2019-02-22T00:02:18.991Z,8.97
2019-02-22T00:02:50.235Z,8.10
2019-02-22T00:03:21.556Z,7.60
2019-02-22T00:03:52.832Z,7.20
2019-02-22T00:04:24.210Z,7.83
2019-02-22T00:04:55.478Z,7.73
2019-02-22T00:05:26.778Z,5.70
2019-02-22T00:05:58.024Z,7.03
2019-02-22T00:06:31.241Z,8.90
2019-02-22T00:07:02.466Z,6.10
2019-02-22T00:07:33.778Z,8.03
2019-02-22T00:08:05.020Z,7.77
2019-02-22T00:08:36.337Z,9.33
2019-02-22T00:09:07.541Z,6.47
2019-02-22T00:09:48.851Z,6.53
2019-02-22T00:10:12.195Z,6.97
2019-02-22T00:10:43.506Z,6.47
2019-02-22T00:11:14.747Z,5.97
2019-02-22T00:11:46.132Z,5.33
2019-02-22T00:12:17.356Z,7.37
2019-02-22T00:12:48.688Z,5.57
2019-02-22T00:13:19.935Z,5.67
2019-02-22T00:13:51.244Z,6.53
2019-02-22T00:14:22.508Z,5.80
2019-02-22T00:14:53.833Z,5.77
2019-02-22T00:15:25.077Z,6.47
2019-02-22T00:15:56.399Z,5.10
2019-02-22T00:16:27.629Z,5.37
2019-02-22T00:16:59.034Z,5.70
2019-02-22T00:17:30.280Z,5.13
2019-02-22T00:18:01.601Z,5.73
2019-02-22T00:18:32.823Z,6.40
2019-02-22T00:19:04.133Z,5.60
2019-02-22T00:19:35.371Z,5.57
2019-02-22T00:20:06.863Z,7.47
2019-02-22T00:20:38.226Z,8.03
2019-02-22T00:21:09.533Z,7.70
2019-02-22T00:21:40.815Z,7.90
2019-02-22T00:22:12.227Z,6.10
2019-02-22T00:22:44.529Z,5.90
2019-02-22T00:23:15.860Z,6.33
2019-02-22T00:23:47.114Z,9.60
2019-02-22T00:24:18.435Z,5.03
2019-02-22T00:24:49.673Z,7.00
2019-02-22T00:25:22.019Z,7.63
2019-02-22T00:25:53.252Z,8.07
2019-02-22T00:26:24.598Z,6.20
2019-02-22T00:26:55.855Z,6.70
2019-02-22T00:27:27.182Z,6.47
2019-02-22T00:27:58.514Z,5.90
2019-02-22T00:28:29.870Z,8.10
2019-02-22T00:29:01.146Z,7.33
2019-02-22T00:29:32.433Z,7.67
2019-02-22T00:30:05.917Z,6.80
2019-02-22T00:30:37.206Z,7.57
2019-02-22T00:31:08.504Z,6.53
2019-02-22T00:31:39.782Z,5.47
2019-02-22T00:32:11.024Z,6.23
2019-02-22T00:32:42.710Z,6.47
2019-02-22T00:33:14.082Z,5.53
2019-02-22T00:33:45.366Z,5.60
2019-02-22T00:34:16.814Z,6.03
2019-02-22T00:34:48.172Z,5.67
2019-02-22T00:35:19.514Z,7.63
2019-02-22T00:35:50.826Z,5.73
2019-02-22T00:36:22.209Z,8.00
2019-02-22T00:36:53.510Z,7.20
2019-02-22T00:37:24.873Z,6.03
2019-02-22T00:37:56.191Z,8.23
2019-02-22T00:38:27.430Z,6.87
2019-02-22T00:38:58.703Z,7.50
2019-02-22T00:39:29.983Z,6.03
2019-02-22T00:40:01.453Z,6.47
2019-02-22T00:40:32.861Z,8.10
2019-02-22T00:41:04.095Z,6.83
2019-02-22T00:41:35.426Z,6.93
2019-02-22T00:42:06.669Z,7.37
2019-02-22T00:42:37.972Z,6.53
2019-02-22T00:43:09.251Z,6.03
2019-02-22T00:43:40.544Z,7.23
2019-02-22T00:44:11.821Z,8.23
2019-02-22T00:44:43.332Z,9.57
2019-02-22T00:45:14.602Z,6.97
2019-02-22T00:45:45.874Z,6.57
2019-02-22T00:46:17.159Z,7.57
2019-02-22T00:46:48.437Z,5.50
2019-02-22T00:47:19.734Z,7.17
2019-02-22T00:47:50.997Z,6.20
2019-02-22T00:48:22.254Z,6.53
2019-02-22T00:48:53.530Z,7.67
2019-02-22T00:49:24.809Z,6.10
2019-02-22T00:49:56.112Z,8.87
2019-02-22T00:50:27.383Z,6.20
2019-02-22T00:50:58.663Z,8.80
2019-02-22T00:51:29.934Z,7.73
2019-02-22T00:52:01.201Z,6.30
2019-02-22T00:52:32.470Z,8.10
2019-02-22T00:53:03.892Z,6.70
2019-02-22T00:53:35.197Z,7.20
2019-02-22T00:54:06.470Z,5.50
2019-02-22T00:54:37.758Z,7.90
2019-02-22T00:55:09.061Z,6.30
2019-02-22T00:55:40.430Z,7.87
2019-02-22T00:56:11.705Z,7.07
2019-02-22T00:56:43.210Z,6.40
2019-02-22T00:57:14.492Z,6.13
2019-02-22T00:57:45.785Z,6.37
2019-02-22T00:58:17.061Z,6.23
2019-02-22T00:58:48.347Z,5.77
2019-02-22T00:59:19.679Z,5.83
2019-02-22T00:59:50.943Z,6.50
2019-02-22T01:00:22.252Z,6.30
2019-02-22T01:00:53.491Z,7.07
2019-02-22T01:01:25.807Z,8.70
2019-02-22T01:01:58.033Z,6.10
2019-02-22T01:02:29.284Z,6.77
2019-02-22T01:03:01.543Z,6.27
2019-02-22T01:03:32.847Z,6.13
2019-02-22T01:04:04.111Z,7.27
2019-02-22T01:04:35.395Z,5.70
2019-02-22T01:05:06.621Z,5.97
2019-02-22T01:05:38.051Z,6.23
2019-02-22T01:06:09.303Z,7.00
2019-02-22T01:06:40.619Z,6.73
2019-02-22T01:07:11.906Z,7.77
2019-02-22T01:07:43.415Z,9.63
2019-02-22T01:08:14.671Z,8.93
2019-02-22T01:08:46.223Z,9.90
2019-02-22T01:09:17.468Z,8.87
2019-02-22T01:09:48.768Z,9.67
2019-02-22T01:10:30.422Z,8.37
2019-02-22T01:10:53.241Z,7.57
2019-02-22T01:11:24.486Z,6.77
2019-02-22T01:11:55.802Z,6.47
2019-02-22T01:12:27.054Z,8.47
2019-02-22T01:12:58.356Z,7.07
2019-02-22T01:13:29.704Z,6.67
2019-02-22T01:14:01.024Z,7.23
2019-02-22T01:14:32.404Z,5.83
2019-02-22T01:15:05.150Z,6.10
2019-02-22T01:15:36.603Z,5.93
2019-02-22T01:16:07.976Z,5.40
2019-02-22T01:16:40.310Z,6.17
2019-02-22T01:17:11.658Z,6.67
2019-02-22T01:17:43.239Z,7.87
2019-02-22T01:18:14.603Z,7.17
2019-02-22T01:18:46.006Z,6.07
2019-02-22T01:19:17.439Z,9.47
2019-02-22T01:19:48.769Z,8.20
2019-02-22T01:20:20.217Z,6.53
2019-02-22T01:20:54.472Z,6.03
2019-02-22T01:21:24.705Z,9.13
2019-02-22T01:21:56.020Z,6.27
2019-02-22T01:22:27.266Z,7.10
2019-02-22T01:22:58.601Z,5.53
2019-02-22T01:23:29.872Z,7.03
2019-02-22T01:24:01.194Z,5.30
2019-02-22T01:24:32.501Z,4.53
2019-02-22T01:25:04.077Z,5.70
2019-02-22T01:25:35.491Z,5.03
2019-02-22T01:26:06.827Z,6.47
2019-02-22T01:26:38.137Z,5.60
2019-02-22T01:27:09.538Z,6.40
2019-02-22T01:27:40.911Z,6.77
2019-02-22T01:28:15.014Z,6.03
2019-02-22T01:28:46.512Z,5.80
2019-02-22T01:29:17.900Z,5.57
2019-02-22T01:29:49.207Z,5.07
2019-02-22T01:30:20.433Z,6.67
2019-02-22T01:30:51.748Z,7.03
2019-02-22T01:31:22.983Z,6.87
2019-02-22T01:31:54.314Z,5.60
2019-02-22T01:32:25.568Z,4.60
2019-02-22T01:32:56.882Z,7.67
2019-02-22T01:33:28.112Z,5.20
2019-02-22T01:33:59.438Z,4.70
2019-02-22T01:34:30.686Z,4.17
2019-02-22T01:35:02.006Z,6.27
2019-02-22T01:35:34.400Z,6.33
2019-02-22T01:36:05.822Z,5.90
2019-02-22T01:36:37.156Z,6.80
2019-02-22T01:37:08.504Z,6.97
2019-02-22T01:37:39.769Z,8.40
2019-02-22T01:38:11.128Z,6.13
2019-02-22T01:38:43.355Z,6.60
2019-02-22T01:39:14.778Z,6.03
2019-02-22T01:39:46.069Z,7.40
2019-02-22T01:40:17.449Z,6.60
2019-02-22T01:40:48.788Z,6.23
2019-02-22T01:41:20.240Z,5.37
2019-02-22T01:41:51.583Z,6.23
2019-02-22T01:42:23.927Z,5.10
2019-02-22T01:42:55.380Z,6.67
2019-02-22T01:43:26.698Z,5.53
2019-02-22T01:43:58.051Z,6.53
2019-02-22T01:44:29.391Z,5.27
2019-02-22T01:45:00.695Z,6.10
2019-02-22T01:45:31.923Z,5.97
2019-02-22T01:46:03.387Z,5.03
2019-02-22T01:46:34.601Z,6.67
2019-02-22T01:47:05.899Z,6.80
2019-02-22T01:47:37.159Z,6.67
2019-02-22T01:48:08.472Z,7.43
2019-02-22T01:48:39.733Z,7.77
2019-02-22T01:49:11.022Z,6.90
2019-02-22T01:49:42.265Z,6.83
2019-02-22T01:50:20.580Z,6.50
2019-02-22T01:50:51.901Z,6.33
2019-02-22T01:51:23.304Z,7.33
2019-02-22T01:51:54.556Z,6.87
2019-02-22T01:52:25.872Z,7.60
2019-02-22T01:52:57.111Z,6.27
2019-02-22T01:53:28.431Z,5.67
2019-02-22T01:53:59.654Z,4.13
2019-02-22T01:54:31.976Z,7.03
2019-02-22T01:55:03.265Z,7.07
2019-02-22T01:55:34.775Z,8.03
2019-02-22T01:56:06.222Z,7.53
2019-02-22T01:56:37.548Z,4.83
2019-02-22T01:57:08.959Z,8.27
2019-02-22T01:57:40.299Z,5.43
2019-02-22T01:58:11.745Z,7.47
2019-02-22T01:58:48.724Z,8.30
2019-02-22T01:59:16.481Z,5.83
2019-02-22T01:59:47.808Z,7.93
2019-02-22T02:00:19.147Z,8.33
2019-02-22T02:00:50.468Z,8.47
2019-02-22T02:01:21.780Z,8.43
2019-02-22T02:01:53.113Z,8.60
2019-02-22T02:02:24.420Z,7.50
2019-02-22T02:02:55.677Z,11.87
2019-02-22T02:03:26.989Z,7.70
2019-02-22T02:03:58.237Z,6.57
2019-02-22T02:04:29.691Z,8.40
2019-02-22T02:05:00.987Z,8.17
2019-02-22T02:05:32.337Z,12.13
2019-02-22T02:06:03.707Z,10.50
2019-02-22T02:06:35.042Z,12.07
2019-02-22T02:07:06.371Z,9.70
2019-02-22T02:07:38.738Z,9.53
2019-02-22T02:08:10.183Z,8.33
2019-02-22T02:08:41.505Z,11.40
2019-02-22T02:09:12.864Z,10.47
2019-02-22T02:09:44.251Z,6.37
2019-02-22T02:10:15.649Z,6.53
2019-02-22T02:10:53.893Z,7.97
2019-02-22T02:11:20.076Z,8.47
2019-02-22T02:11:51.309Z,6.37
2019-02-22T02:12:22.616Z,7.90
2019-02-22T02:12:53.838Z,5.83
2019-02-22T02:13:25.144Z,4.97
2019-02-22T02:13:56.427Z,7.23
2019-02-22T02:14:27.734Z,7.87
2019-02-22T02:14:58.998Z,6.80
2019-02-22T02:15:30.310Z,7.63
2019-02-22T02:16:01.548Z,10.07
2019-02-22T02:16:33.866Z,6.30
2019-02-22T02:17:05.110Z,6.90
2019-02-22T02:17:36.471Z,7.70
2019-02-22T02:18:07.776Z,9.13
2019-02-22T02:18:39.136Z,8.30
2019-02-22T02:19:10.358Z,8.87
2019-02-22T02:19:42.776Z,7.73
2019-02-22T02:20:14.166Z,6.30
2019-02-22T02:20:45.980Z,7.60
2019-02-22T02:21:17.391Z,7.57
2019-02-22T02:21:48.845Z,6.97
2019-02-22T02:22:20.217Z,6.07
2019-02-22T02:22:51.574Z,6.80
2019-02-22T02:23:22.917Z,7.93
2019-02-22T02:23:54.261Z,9.40
2019-02-22T02:24:25.687Z,6.97
2019-02-22T02:24:57.007Z,9.07
2019-02-22T02:25:28.331Z,7.93
2019-02-22T02:25:59.571Z,8.17
2019-02-22T02:26:30.879Z,7.13
2019-02-22T02:27:02.113Z,5.63
2019-02-22T02:27:33.437Z,6.50
2019-02-22T02:28:04.667Z,6.17
2019-02-22T02:28:35.985Z,7.30
2019-02-22T02:29:07.248Z,7.87
2019-02-22T02:29:38.568Z,6.83
2019-02-22T02:30:09.830Z,6.40
2019-02-22T02:30:41.208Z,6.67
2019-02-22T02:31:12.740Z,7.33
2019-02-22T02:31:44.145Z,7.10
2019-02-22T02:32:15.368Z,7.17
2019-02-22T02:32:46.677Z,7.13
2019-02-22T02:33:18.081Z,8.90
2019-02-22T02:33:49.459Z,7.70
2019-02-22T02:34:20.749Z,7.83
2019-02-22T02:34:52.102Z,6.47
2019-02-22T02:35:23.409Z,6.23
2019-02-22T02:35:54.638Z,6.90
2019-02-22T02:36:26.050Z,6.07
2019-02-22T02:36:57.294Z,6.43
2019-02-22T02:37:28.600Z,7.20
2019-02-22T02:37:59.873Z,8.43
2019-02-22T02:38:31.199Z,6.80
2019-02-22T02:39:03.847Z,7.87
2019-02-22T02:39:37.097Z,6.47
2019-02-22T02:40:08.397Z,6.90
2019-02-22T02:40:39.635Z,7.43
2019-02-22T02:41:11.589Z,6.10
2019-02-22T02:41:44.389Z,6.50
2019-02-22T02:42:15.613Z,10.53
2019-02-22T02:42:46.888Z,7.23
2019-02-22T02:43:18.091Z,6.13
2019-02-22T02:43:49.337Z,5.17
2019-02-22T02:44:20.510Z,5.60
2019-02-22T02:44:51.799Z,7.37
2019-02-22T02:45:22.995Z,8.50
2019-02-22T02:45:54.301Z,7.03
2019-02-22T02:46:25.565Z,6.43
2019-02-22T02:46:56.821Z,6.53
2019-02-22T02:47:28.264Z,6.97
2019-02-22T02:47:59.713Z,5.50
2019-02-22T02:48:31.078Z,7.10
2019-02-22T02:49:02.469Z,6.77
2019-02-22T02:49:33.778Z,6.73
2019-02-22T02:50:06.591Z,6.13
2019-02-22T02:50:37.911Z,7.27
2019-02-22T02:51:09.259Z,8.30
2019-02-22T02:51:40.523Z,6.37
2019-02-22T02:52:11.752Z,5.53
2019-02-22T02:52:43.558Z,7.37
2019-02-22T02:53:15.849Z,6.07
2019-02-22T02:53:47.046Z,7.17
2019-02-22T02:54:18.284Z,7.30
2019-02-22T02:54:49.524Z,5.17
2019-02-22T02:55:28.351Z,8.53
2019-02-22T02:55:59.688Z,7.43
2019-02-22T02:56:30.925Z,7.60
2019-02-22T02:57:02.163Z,9.90
2019-02-22T02:57:33.528Z,8.10
2019-02-22T02:58:04.915Z,7.53
2019-02-22T02:58:36.306Z,6.40
2019-02-22T02:59:07.689Z,6.00
2019-02-22T02:59:39.032Z,5.00
2019-02-22T03:00:10.489Z,6.00
2019-02-22T03:00:41.882Z,9.23
2019-02-22T03:01:14.223Z,6.60
2019-02-22T03:01:45.851Z,6.43
2019-02-22T03:02:18.915Z,9.93
2019-02-22T03:02:50.185Z,9.70
2019-02-22T03:03:21.468Z,7.13
2019-02-22T03:03:52.823Z,9.43
2019-02-22T03:04:24.099Z,7.30
2019-02-22T03:04:55.397Z,8.10
2019-02-22T03:05:28.518Z,7.33
2019-02-22T03:06:01.637Z,6.43
2019-02-22T03:06:46.492Z,7.03
2019-02-22T03:07:35.962Z,5.33
2019-02-22T03:08:07.243Z,6.50
2019-02-22T03:08:38.581Z,6.93
2019-02-22T03:09:09.830Z,7.47
2019-02-22T03:09:41.729Z,5.63
2019-02-22T03:10:12.953Z,6.93
2019-02-22T03:10:44.379Z,8.30
2019-02-22T03:11:20.585Z,6.67
2019-02-22T03:11:49.189Z,6.03
2019-02-22T03:12:20.567Z,6.47
2019-02-22T03:12:51.931Z,6.83
2019-02-22T03:13:23.304Z,5.40
2019-02-22T03:13:54.755Z,6.30
2019-02-22T03:14:26.153Z,6.07
2019-02-22T03:14:57.478Z,7.43
2019-02-22T03:15:28.891Z,6.97
2019-02-22T03:16:00.171Z,6.80
2019-02-22T03:16:31.375Z,6.17
2019-02-22T03:17:02.643Z,6.97
2019-02-22T03:17:34.987Z,7.00
2019-02-22T03:18:06.407Z,7.47
2019-02-22T03:18:37.725Z,5.93
2019-02-22T03:19:09.102Z,7.20
2019-02-22T03:19:40.449Z,8.07
2019-02-22T03:20:11.891Z,6.87
2019-02-22T03:20:44.428Z,7.60
2019-02-22T03:21:16.898Z,7.87
2019-02-22T03:21:48.273Z,8.27
2019-02-22T03:22:19.716Z,6.50
2019-02-22T03:22:51.245Z,6.67
2019-02-22T03:23:22.656Z,8.53
2019-02-22T03:23:53.956Z,6.30
2019-02-22T03:24:25.441Z,8.03
2019-02-22T03:24:56.721Z,7.20
2019-02-22T03:25:28.112Z,11.57
2019-02-22T03:25:59.387Z,8.10
2019-02-22T03:26:30.747Z,7.50
2019-02-22T03:27:02.166Z,6.73
2019-02-22T03:27:33.562Z,9.23
2019-02-22T03:28:04.951Z,7.43
2019-02-22T03:28:36.425Z,7.77
2019-02-22T03:29:07.707Z,7.13
2019-02-22T03:29:39.019Z,6.93
2019-02-22T03:30:10.310Z,7.83
2019-02-22T03:30:41.914Z,5.93
2019-02-22T03:31:13.221Z,9.63
2019-02-22T03:31:44.583Z,9.03
2019-02-22T03:32:15.877Z,6.73
2019-02-22T03:32:47.276Z,8.10
2019-02-22T03:33:18.658Z,5.70
2019-02-22T03:33:50.103Z,6.50
2019-02-22T03:34:21.427Z,6.10
2019-02-22T03:34:52.674Z,7.70
2019-02-22T03:35:23.874Z,7.03
2019-02-22T03:35:55.200Z,6.50
2019-02-22T03:36:26.512Z,8.17
2019-02-22T03:36:57.898Z,8.00
2019-02-22T03:37:29.203Z,6.47
2019-02-22T03:38:00.605Z,4.93
2019-02-22T03:38:32.152Z,8.30
2019-02-22T03:39:04.904Z,6.13
2019-02-22T03:39:38.283Z,7.43
2019-02-22T03:40:09.811Z,7.73
2019-02-22T03:40:41.472Z,6.83
2019-02-22T03:41:13.116Z,6.80
2019-02-22T03:41:44.701Z,6.57
2019-02-22T03:42:15.921Z,5.87
2019-02-22T03:42:47.281Z,7.57
2019-02-22T03:43:18.600Z,7.33
2019-02-22T03:43:50.037Z,6.27
2019-02-22T03:44:21.390Z,7.37
2019-02-22T03:44:52.761Z,10.73
2019-02-22T03:45:24.162Z,8.30
2019-02-22T03:45:55.421Z,8.37
2019-02-22T03:46:26.748Z,6.97
2019-02-22T03:46:58.197Z,9.10
2019-02-22T03:47:29.504Z,8.50
2019-02-22T03:48:00.975Z,7.10
2019-02-22T03:48:32.275Z,7.20
2019-02-22T03:49:03.619Z,6.63
2019-02-22T03:49:34.956Z,7.43
2019-02-22T03:50:06.853Z,8.80
2019-02-22T03:50:38.257Z,9.60
2019-02-22T03:51:09.663Z,8.47
2019-02-22T03:51:41.071Z,8.03
2019-02-22T03:52:17.195Z,10.00
2019-02-22T03:52:53.277Z,8.53
2019-02-22T03:53:26.606Z,10.10
2019-02-22T03:53:58.151Z,11.37
2019-02-22T03:54:29.542Z,8.20
2019-02-22T03:55:01.124Z,8.50
2019-02-22T03:55:33.503Z,9.17
2019-02-22T03:56:05.035Z,6.13
2019-02-22T03:56:36.474Z,7.23
2019-02-22T03:57:07.918Z,8.53
2019-02-22T03:57:39.298Z,7.50
2019-02-22T03:58:10.659Z,8.20
2019-02-22T03:58:42.127Z,6.83
2019-02-22T03:59:13.687Z,6.80
2019-02-22T03:59:45.083Z,5.73
2019-02-22T04:00:16.553Z,6.30
2019-02-22T04:00:47.931Z,9.70
2019-02-22T04:01:19.313Z,4.87
2019-02-22T04:01:50.761Z,6.33
2019-02-22T04:02:22.317Z,6.23
2019-02-22T04:02:53.800Z,6.37
2019-02-22T04:03:25.140Z,6.87
2019-02-22T04:03:56.622Z,5.40
2019-02-22T04:04:27.938Z,5.70
2019-02-22T04:04:59.304Z,4.87
2019-02-22T04:05:30.549Z,5.63
2019-02-22T04:06:01.858Z,5.53
2019-02-22T04:06:33.150Z,7.80
2019-02-22T04:07:04.636Z,7.20
2019-02-22T04:07:35.934Z,8.20
2019-02-22T04:08:07.482Z,8.20
2019-02-22T04:08:38.793Z,8.13
2019-02-22T04:09:10.229Z,6.73
2019-02-22T04:09:41.737Z,6.80
2019-02-22T04:10:13.503Z,9.70
2019-02-22T04:10:44.825Z,6.07
2019-02-22T04:11:16.455Z,7.50
2019-02-22T04:11:47.657Z,5.33
2019-02-22T04:12:19.064Z,5.43
2019-02-22T04:12:50.420Z,8.23
2019-02-22T04:13:21.772Z,5.63
2019-02-22T04:13:53.132Z,7.27
2019-02-22T04:14:24.573Z,7.07
2019-02-22T04:14:55.892Z,6.10
2019-02-22T04:15:27.321Z,8.53
2019-02-22T04:15:58.667Z,7.47
2019-02-22T04:16:30.052Z,6.37
2019-02-22T04:17:01.399Z,6.60
2019-02-22T04:17:32.719Z,6.27
2019-02-22T04:18:04.014Z,8.27
2019-02-22T04:18:35.269Z,8.67
2019-02-22T04:19:06.754Z,7.33
2019-02-22T04:19:38.188Z,5.03
2019-02-22T04:20:09.557Z,6.90
2019-02-22T04:20:40.959Z,6.43
2019-02-22T04:21:12.617Z,7.40
2019-02-22T04:21:44.029Z,9.23
2019-02-22T04:22:15.755Z,7.80
2019-02-22T04:22:47.112Z,8.47
2019-02-22T04:23:18.562Z,5.63
2019-02-22T04:23:49.851Z,6.17
2019-02-22T04:24:22.117Z,7.77
2019-02-22T04:24:53.550Z,8.27
2019-02-22T04:25:25.017Z,7.17
2019-02-22T04:25:56.548Z,8.23
2019-02-22T04:26:28.190Z,6.40
2019-02-22T04:26:59.556Z,7.20
2019-02-22T04:27:30.814Z,12.30
2019-02-22T04:28:02.179Z,6.90
2019-02-22T04:28:33.661Z,8.50
2019-02-22T04:29:05.347Z,8.80
2019-02-22T04:29:36.737Z,9.23
2019-02-22T04:30:09.178Z,8.00
2019-02-22T04:30:40.526Z,9.77
2019-02-22T04:31:11.947Z,8.13
2019-02-22T04:31:43.184Z,8.30
2019-02-22T04:32:14.612Z,6.77
2019-02-22T04:32:45.953Z,9.37
2019-02-22T04:33:17.342Z,7.43
2019-02-22T04:33:48.836Z,7.87
2019-02-22T04:34:20.315Z,8.37
2019-02-22T04:34:51.681Z,9.90
2019-02-22T04:35:23.085Z,9.33
2019-02-22T04:35:54.382Z,10.17
2019-02-22T04:36:26.747Z,14.77
2019-02-22T04:36:58.072Z,12.77
2019-02-22T04:37:29.506Z,10.00
2019-02-22T04:38:00.917Z,7.97
2019-02-22T04:38:32.287Z,8.07
2019-02-22T04:39:05.226Z,7.00
2019-02-22T04:39:36.800Z,9.23
2019-02-22T04:40:08.113Z,8.67
2019-02-22T04:40:39.448Z,10.00
2019-02-22T04:41:10.954Z,12.67
2019-02-22T04:41:42.341Z,10.03
2019-02-22T04:42:13.792Z,10.80
2019-02-22T04:42:45.189Z,13.97
2019-02-22T04:43:16.641Z,10.60
2019-02-22T04:43:48.223Z,11.83
2019-02-22T04:44:19.639Z,14.40
2019-02-22T04:44:51.085Z,14.23
2019-02-22T04:45:22.560Z,13.50
2019-02-22T04:45:54.031Z,12.17
2019-02-22T04:46:25.501Z,12.27
2019-02-22T04:46:57.009Z,12.83
2019-02-22T04:47:28.439Z,12.37
2019-02-22T04:47:59.769Z,12.33
2019-02-22T04:48:31.241Z,10.33
2019-02-22T04:49:02.582Z,11.10
2019-02-22T04:49:34.122Z,9.60
2019-02-22T04:50:06.436Z,12.33
2019-02-22T04:50:37.770Z,11.17
2019-02-22T04:51:09.094Z,9.17
2019-02-22T04:51:40.684Z,10.40
2019-02-22T04:52:12.033Z,9.60
2019-02-22T04:52:43.519Z,11.53
2019-02-22T04:53:14.774Z,11.83
2019-02-22T04:53:47.270Z,14.20
2019-02-22T04:54:18.539Z,12.27
2019-02-22T04:54:50.059Z,10.30
2019-02-22T04:55:21.277Z,10.83
2019-02-22T04:55:52.591Z,10.77
2019-02-22T04:56:23.909Z,10.70
2019-02-22T04:56:55.227Z,10.73
2019-02-22T04:57:26.610Z,10.73
2019-02-22T04:57:57.922Z,8.97
2019-02-22T04:58:29.442Z,13.67
2019-02-22T04:59:00.999Z,8.53
2019-02-22T04:59:32.595Z,7.03
2019-02-22T05:00:04.039Z,9.37
2019-02-22T05:00:35.484Z,11.23
2019-02-22T05:01:06.962Z,14.10
2019-02-22T05:01:38.377Z,10.00
2019-02-22T05:02:09.743Z,7.83
2019-02-22T05:02:41.154Z,10.67
2019-02-22T05:03:12.345Z,6.63
2019-02-22T05:03:43.844Z,7.93
2019-02-22T05:04:15.247Z,10.50
2019-02-22T05:04:46.799Z,7.97
2019-02-22T05:05:18.165Z,7.13
2019-02-22T05:05:50.471Z,7.33
2019-02-22T05:06:21.747Z,7.57
2019-02-22T05:06:54.027Z,7.93
2019-02-22T05:07:25.371Z,10.77
2019-02-22T05:07:56.805Z,7.03
2019-02-22T05:08:28.273Z,6.57
2019-02-22T05:08:59.558Z,9.30
2019-02-22T05:09:31.108Z,8.03
2019-02-22T05:10:02.810Z,8.87
2019-02-22T05:10:34.302Z,8.10
2019-02-22T05:11:05.761Z,7.43
2019-02-22T05:11:37.173Z,7.17
2019-02-22T05:12:11.219Z,7.87
2019-02-22T05:12:41.832Z,8.47
2019-02-22T05:13:13.234Z,9.60
2019-02-22T05:13:45.628Z,11.33
2019-02-22T05:14:16.853Z,9.20
2019-02-22T05:14:48.358Z,11.97
2019-02-22T05:15:19.616Z,7.67
2019-02-22T05:15:51.027Z,10.87
2019-02-22T05:16:22.328Z,9.77
2019-02-22T05:16:53.676Z,8.53
2019-02-22T05:17:25.133Z,9.70
2019-02-22T05:17:56.416Z,7.97
2019-02-22T05:18:27.719Z,6.77
2019-02-22T05:18:59.049Z,5.70
2019-02-22T05:19:30.311Z,7.50
2019-02-22T05:20:01.905Z,7.83
2019-02-22T05:20:33.333Z,6.93
2019-02-22T05:21:04.826Z,6.77
2019-02-22T05:21:36.237Z,7.70
2019-02-22T05:22:07.533Z,6.17
2019-02-22T05:22:39.020Z,8.80
2019-02-22T05:23:10.405Z,7.67
2019-02-22T05:23:41.876Z,6.63
2019-02-22T05:24:13.615Z,7.13
2019-02-22T05:24:45.050Z,7.03
2019-02-22T05:25:16.516Z,6.83
2019-02-22T05:25:48.049Z,8.33
2019-02-22T05:26:19.514Z,8.67
2019-02-22T05:26:50.992Z,12.67
2019-02-22T05:27:22.503Z,11.77
2019-02-22T05:27:54.990Z,7.20
2019-02-22T05:28:26.361Z,10.13
2019-02-22T05:28:57.763Z,8.97
2019-02-22T05:29:29.164Z,10.07
2019-02-22T05:30:00.544Z,7.17
2019-02-22T05:30:31.887Z,7.10
2019-02-22T05:31:03.231Z,6.97
2019-02-22T05:31:34.543Z,6.13
2019-02-22T05:32:05.933Z,6.53
2019-02-22T05:32:37.459Z,6.23
2019-02-22T05:33:09.871Z,6.93
2019-02-22T05:33:41.123Z,10.00
2019-02-22T05:34:12.593Z,6.17
2019-02-22T05:34:43.959Z,7.70
2019-02-22T05:35:15.660Z,8.03
2019-02-22T05:35:46.856Z,8.33
2019-02-22T05:36:18.251Z,9.23
2019-02-22T05:36:49.514Z,7.63
2019-02-22T05:37:21.591Z,7.70
2019-02-22T05:37:52.988Z,9.60
2019-02-22T05:38:24.511Z,10.97
2019-02-22T05:38:55.869Z,9.97
2019-02-22T05:39:27.411Z,10.47
2019-02-22T05:39:58.923Z,10.97
2019-02-22T05:40:30.490Z,9.17
2019-02-22T05:41:01.869Z,11.10
2019-02-22T05:41:33.418Z,10.67
2019-02-22T05:42:04.837Z,12.57
2019-02-22T05:42:36.157Z,11.57
2019-02-22T05:43:07.484Z,9.80
2019-02-22T05:43:38.837Z,10.83
2019-02-22T05:44:10.128Z,9.23
2019-02-22T05:44:41.452Z,9.00
2019-02-22T05:45:12.925Z,8.30
2019-02-22T05:45:44.207Z,11.70
2019-02-22T05:46:15.726Z,8.27
2019-02-22T05:46:47.017Z,8.77
2019-02-22T05:47:18.336Z,8.53
2019-02-22T05:47:49.747Z,8.60
2019-02-22T05:48:22.161Z,9.37
2019-02-22T05:48:53.472Z,7.67
2019-02-22T05:49:24.899Z,6.53
2019-02-22T05:49:56.227Z,7.10
2019-02-22T05:50:27.499Z,7.40
2019-02-22T05:50:58.847Z,8.53
2019-02-22T05:51:30.248Z,8.47
2019-02-22T05:52:01.522Z,9.33
2019-02-22T05:52:32.937Z,7.03
2019-02-22T05:53:04.514Z,10.07
2019-02-22T05:53:36.072Z,11.93
2019-02-22T05:54:07.508Z,8.17
2019-02-22T05:54:38.892Z,11.23
2019-02-22T05:55:10.421Z,10.67
2019-02-22T05:55:44.139Z,9.33
2019-02-22T05:56:15.171Z,10.17
2019-02-22T05:56:46.707Z,13.27
2019-02-22T05:57:18.148Z,12.30
2019-02-22T05:57:49.645Z,9.47
2019-02-22T05:58:21.061Z,12.30
2019-02-22T05:58:52.427Z,8.83
2019-02-22T05:59:23.844Z,9.83
2019-02-22T05:59:55.264Z,9.93
2019-02-22T06:00:26.780Z,6.67
2019-02-22T06:00:58.003Z,8.20
2019-02-22T06:01:29.445Z,7.47
2019-02-22T06:02:00.769Z,7.77
2019-02-22T06:02:34.062Z,11.43
2019-02-22T06:03:06.047Z,8.93
2019-02-22T06:03:37.538Z,11.27
2019-02-22T06:04:08.935Z,9.80
2019-02-22T06:04:40.430Z,9.27
2019-02-22T06:05:11.780Z,7.83
2019-02-22T06:05:43.121Z,13.17
2019-02-22T06:06:14.446Z,11.63
2019-02-22T06:06:45.922Z,11.57
2019-02-22T06:07:17.281Z,11.00
2019-02-22T06:07:48.794Z,12.40
2019-02-22T06:08:20.224Z,11.23
2019-02-22T06:08:51.586Z,11.70
2019-02-22T06:09:23.088Z,10.57
2019-02-22T06:09:54.500Z,12.77
2019-02-22T06:10:26.960Z,12.57
2019-02-22T06:10:58.443Z,11.40
2019-02-22T06:11:29.938Z,11.40
2019-02-22T06:12:01.188Z,11.00
2019-02-22T06:12:34.894Z,11.10
2019-02-22T06:13:06.546Z,12.47
2019-02-22T06:13:37.927Z,14.33
2019-02-22T06:14:09.445Z,14.23
2019-02-22T06:14:40.967Z,12.30
2019-02-22T06:15:12.243Z,11.73
2019-02-22T06:15:43.563Z,12.00
2019-02-22T06:16:14.842Z,10.30
2019-02-22T06:16:46.323Z,11.70
2019-02-22T06:17:17.675Z,10.23
2019-02-22T06:17:49.041Z,9.73
2019-02-22T06:18:23.036Z,10.30
2019-02-22T06:18:53.685Z,9.00
2019-02-22T06:19:26.156Z,10.10
2019-02-22T06:19:57.547Z,10.50
2019-02-22T06:20:29.095Z,14.73
2019-02-22T06:21:00.559Z,11.43
2019-02-22T06:21:31.861Z,9.77
2019-02-22T06:22:04.164Z,12.70
2019-02-22T06:22:35.620Z,15.07
2019-02-22T06:23:07.028Z,12.37
2019-02-22T06:23:38.540Z,11.70
2019-02-22T06:24:09.919Z,12.77
2019-02-22T06:24:41.456Z,14.50
2019-02-22T06:25:12.891Z,12.40
2019-02-22T06:25:44.417Z,12.07
2019-02-22T06:26:15.716Z,10.43
2019-02-22T06:26:47.144Z,9.00
2019-02-22T06:27:18.609Z,9.03
2019-02-22T06:27:50.023Z,10.77
2019-02-22T06:28:21.294Z,15.60
2019-02-22T06:28:52.623Z,17.17
2019-02-22T06:29:24.153Z,15.20
2019-02-22T06:29:55.638Z,20.27
2019-02-22T06:30:27.111Z,20.17
2019-02-22T06:30:58.325Z,21.90
2019-02-22T06:31:29.610Z,27.20
2019-02-22T06:32:00.935Z,33.50
2019-02-22T06:32:32.417Z,24.23
2019-02-22T06:33:03.702Z,27.20
2019-02-22T06:33:35.155Z,21.40
2019-02-22T06:34:06.569Z,24.43
2019-02-22T06:34:37.903Z,20.07
2019-02-22T06:35:10.411Z,19.57
2019-02-22T06:35:41.790Z,15.33
2019-02-22T06:36:13.337Z,14.00
2019-02-22T06:36:44.766Z,12.50
2019-02-22T06:37:16.163Z,10.90
2019-02-22T06:37:47.678Z,12.50
2019-02-22T06:38:19.089Z,14.17
2019-02-22T06:38:50.581Z,9.57
2019-02-22T06:39:21.991Z,8.03
2019-02-22T06:39:53.540Z,10.53
2019-02-22T06:40:24.905Z,11.53
2019-02-22T06:40:56.313Z,17.17
2019-02-22T06:41:28.751Z,21.47
2019-02-22T06:42:00.259Z,19.97
2019-02-22T06:42:32.578Z,18.07
2019-02-22T06:43:04.832Z,18.10
2019-02-22T06:43:36.349Z,12.90
2019-02-22T06:44:07.709Z,8.03
2019-02-22T06:44:39.122Z,12.13
2019-02-22T06:45:10.435Z,13.10
2019-02-22T06:45:41.823Z,11.53
2019-02-22T06:46:13.681Z,15.77
2019-02-22T06:46:44.960Z,15.50
2019-02-22T06:47:16.265Z,19.20
2019-02-22T06:47:48.518Z,21.93
2019-02-22T06:48:19.939Z,22.50
2019-02-22T06:48:51.327Z,23.53
2019-02-22T06:49:22.613Z,19.13
2019-02-22T06:49:54.129Z,14.33
2019-02-22T06:50:33.833Z,21.50
2019-02-22T06:50:58.761Z,21.23
2019-02-22T06:51:30.217Z,25.00
2019-02-22T06:52:01.844Z,29.93
2019-02-22T06:52:33.209Z,40.27
2019-02-22T06:53:04.844Z,35.37
2019-02-22T06:53:36.530Z,34.33
2019-02-22T06:54:08.815Z,34.97
2019-02-22T06:54:40.236Z,29.70
2019-02-22T06:55:11.554Z,29.37
2019-02-22T06:55:43.072Z,28.77
2019-02-22T06:56:14.472Z,36.07
2019-02-22T06:56:47.044Z,33.40
2019-02-22T06:57:18.508Z,28.20